sensor_id;sensor_type;location;lat;lon;timestamp;P1;durP1;ratioP1;P2;durP2;ratioP2
20177;SDS011;10248;51.218;20.866;2022-11-02T00:01:02;2.75;;;2.65;;
20177;SDS011;10248;51.218;20.866;2022-11-02T00:03:40;3.00;;;2.90;;
20177;SDS011;10248;51.218;20.866;2022-11-02T00:06:08;2.70;;;2.60;;
20177;SDS011;10248;51.218;20.866;2022-11-02T00:08:35;2.92;;;2.83;;
20177;SDS011;10248;51.218;20.866;2022-11-02T00:11:03;2.85;;;2.75;;
20177;SDS011;10248;51.218;20.866;2022-11-02T00:13:31;2.90;;;2.80;;
20177;SDS011;10248;51.218;20.866;2022-11-02T00:15:59;2.70;;;2.60;;
20177;SDS011;10248;51.218;20.866;2022-11-02T00:18:27;2.75;;;2.65;;
20177;SDS011;10248;51.218;20.866;2022-11-02T00:20:57;2.92;;;2.83;;
20177;SDS011;10248;51.218;20.866;2022-11-02T00:23:25;3.00;;;2.90;;
20177;SDS011;10248;51.218;20.866;2022-11-02T00:25:52;2.80;;;2.70;;
20177;SDS011;10248;51.218;20.866;2022-11-02T00:28:21;3.00;;;2.90;;
20177;SDS011;10248;51.218;20.866;2022-11-02T00:30:49;2.90;;;2.80;;
20177;SDS011;10248;51.218;20.866;2022-11-02T00:33:17;2.90;;;2.80;;
20177;SDS011;10248;51.218;20.866;2022-11-02T00:35:44;2.80;;;2.70;;
20177;SDS011;10248;51.218;20.866;2022-11-02T00:38:14;3.00;;;2.90;;
20177;SDS011;10248;51.218;20.866;2022-11-02T00:40:41;3.00;;;2.90;;
20177;SDS011;10248;51.218;20.866;2022-11-02T00:43:09;3.00;;;2.90;;
20177;SDS011;10248;51.218;20.866;2022-11-02T00:45:37;2.90;;;2.80;;
20177;SDS011;10248;51.218;20.866;2022-11-02T00:48:05;2.78;;;2.67;;
20177;SDS011;10248;51.218;20.866;2022-11-02T00:50:33;3.00;;;2.90;;
20177;SDS011;10248;51.218;20.866;2022-11-02T00:53:00;3.10;;;3.00;;
20177;SDS011;10248;51.218;20.866;2022-11-02T00:55:29;2.90;;;2.80;;
20177;SDS011;10248;51.218;20.866;2022-11-02T00:57:57;3.05;;;2.95;;
20177;SDS011;10248;51.218;20.866;2022-11-02T01:00:25;3.00;;;2.90;;
20177;SDS011;10248;51.218;20.866;2022-11-02T01:02:53;3.00;;;2.90;;
20177;SDS011;10248;51.218;20.866;2022-11-02T01:05:21;2.90;;;2.80;;
20177;SDS011;10248;51.218;20.866;2022-11-02T01:07:48;2.70;;;2.60;;
20177;SDS011;10248;51.218;20.866;2022-11-02T01:10:16;2.80;;;2.70;;
20177;SDS011;10248;51.218;20.866;2022-11-02T01:12:45;2.78;;;2.67;;
20177;SDS011;10248;51.218;20.866;2022-11-02T01:15:13;2.80;;;2.70;;
20177;SDS011;10248;51.218;20.866;2022-11-02T01:17:40;2.90;;;2.80;;
20177;SDS011;10248;51.218;20.866;2022-11-02T01:20:09;2.80;;;2.70;;
20177;SDS011;10248;51.218;20.866;2022-11-02T01:22:37;2.90;;;2.80;;
20177;SDS011;10248;51.218;20.866;2022-11-02T01:25:05;2.70;;;2.60;;
20177;SDS011;10248;51.218;20.866;2022-11-02T01:27:33;2.88;;;2.78;;
20177;SDS011;10248;51.218;20.866;2022-11-02T01:30:02;2.95;;;2.85;;
20177;SDS011;10248;51.218;20.866;2022-11-02T01:32:31;2.90;;;2.80;;
20177;SDS011;10248;51.218;20.866;2022-11-02T01:34:58;2.97;;;2.88;;
20177;SDS011;10248;51.218;20.866;2022-11-02T01:37:29;2.90;;;2.80;;
20177;SDS011;10248;51.218;20.866;2022-11-02T01:39:57;3.10;;;3.00;;
20177;SDS011;10248;51.218;20.866;2022-11-02T01:42:25;3.00;;;2.90;;
20177;SDS011;10248;51.218;20.866;2022-11-02T01:44:54;2.88;;;2.78;;
20177;SDS011;10248;51.218;20.866;2022-11-02T01:47:24;2.75;;;2.65;;
20177;SDS011;10248;51.218;20.866;2022-11-02T01:49:54;3.10;;;3.00;;
20177;SDS011;10248;51.218;20.866;2022-11-02T01:52:25;3.10;;;3.00;;
20177;SDS011;10248;51.218;20.866;2022-11-02T01:54:56;2.80;;;2.70;;
20177;SDS011;10248;51.218;20.866;2022-11-02T01:57:26;2.77;;;2.67;;
20177;SDS011;10248;51.218;20.866;2022-11-02T01:59:55;2.95;;;2.85;;
20177;SDS011;10248;51.218;20.866;2022-11-02T02:02:26;2.97;;;2.88;;
20177;SDS011;10248;51.218;20.866;2022-11-02T02:04:56;3.00;;;2.90;;
20177;SDS011;10248;51.218;20.866;2022-11-02T02:07:26;2.85;;;2.75;;
20177;SDS011;10248;51.218;20.866;2022-11-02T02:09:56;3.08;;;2.97;;
20177;SDS011;10248;51.218;20.866;2022-11-02T02:12:24;3.00;;;2.90;;
20177;SDS011;10248;51.218;20.866;2022-11-02T02:14:52;2.90;;;2.80;;
20177;SDS011;10248;51.218;20.866;2022-11-02T02:17:23;3.00;;;2.90;;
20177;SDS011;10248;51.218;20.866;2022-11-02T02:19:59;2.92;;;2.83;;
20177;SDS011;10248;51.218;20.866;2022-11-02T02:22:34;2.70;;;2.60;;
20177;SDS011;10248;51.218;20.866;2022-11-02T02:25:15;3.00;;;2.90;;
20177;SDS011;10248;51.218;20.866;2022-11-02T02:28:01;3.00;;;2.90;;
20177;SDS011;10248;51.218;20.866;2022-11-02T02:30:34;2.80;;;2.70;;
20177;SDS011;10248;51.218;20.866;2022-11-02T02:35:34;3.05;;;2.95;;
20177;SDS011;10248;51.218;20.866;2022-11-02T02:38:06;2.95;;;2.85;;
20177;SDS011;10248;51.218;20.866;2022-11-02T02:40:37;2.90;;;2.80;;
20177;SDS011;10248;51.218;20.866;2022-11-02T02:43:09;2.92;;;2.83;;
20177;SDS011;10248;51.218;20.866;2022-11-02T02:45:40;3.10;;;3.00;;
20177;SDS011;10248;51.218;20.866;2022-11-02T02:48:11;3.07;;;2.97;;
20177;SDS011;10248;51.218;20.866;2022-11-02T02:50:42;3.00;;;2.90;;
20177;SDS011;10248;51.218;20.866;2022-11-02T02:53:13;3.00;;;2.90;;
20177;SDS011;10248;51.218;20.866;2022-11-02T02:55:42;2.80;;;2.70;;
20177;SDS011;10248;51.218;20.866;2022-11-02T02:58:14;2.95;;;2.85;;
20177;SDS011;10248;51.218;20.866;2022-11-02T03:00:45;2.70;;;2.60;;
20177;SDS011;10248;51.218;20.866;2022-11-02T03:03:14;3.00;;;2.90;;
20177;SDS011;10248;51.218;20.866;2022-11-02T03:05:52;2.78;;;2.67;;
20177;SDS011;10248;51.218;20.866;2022-11-02T03:08:23;2.60;;;2.50;;
20177;SDS011;10248;51.218;20.866;2022-11-02T03:10:52;2.97;;;2.88;;
20177;SDS011;10248;51.218;20.866;2022-11-02T03:16:00;2.90;;;2.80;;
20177;SDS011;10248;51.218;20.866;2022-11-02T03:18:32;2.90;;;2.80;;
20177;SDS011;10248;51.218;20.866;2022-11-02T03:21:04;2.90;;;2.80;;
20177;SDS011;10248;51.218;20.866;2022-11-02T03:23:37;2.60;;;2.50;;
20177;SDS011;10248;51.218;20.866;2022-11-02T03:26:07;2.90;;;2.80;;
20177;SDS011;10248;51.218;20.866;2022-11-02T03:28:44;2.80;;;2.70;;
20177;SDS011;10248;51.218;20.866;2022-11-02T03:31:22;3.00;;;2.90;;
20177;SDS011;10248;51.218;20.866;2022-11-02T03:33:54;2.80;;;2.70;;
20177;SDS011;10248;51.218;20.866;2022-11-02T03:36:24;2.80;;;2.70;;
20177;SDS011;10248;51.218;20.866;2022-11-02T03:38:57;2.90;;;2.80;;
20177;SDS011;10248;51.218;20.866;2022-11-02T03:41:27;3.10;;;3.00;;
20177;SDS011;10248;51.218;20.866;2022-11-02T03:44:00;3.00;;;2.90;;
20177;SDS011;10248;51.218;20.866;2022-11-02T03:46:30;3.08;;;2.97;;
20177;SDS011;10248;51.218;20.866;2022-11-02T03:48:59;3.00;;;2.90;;
20177;SDS011;10248;51.218;20.866;2022-11-02T03:51:33;2.90;;;2.80;;
20177;SDS011;10248;51.218;20.866;2022-11-02T03:54:04;2.90;;;2.80;;
20177;SDS011;10248;51.218;20.866;2022-11-02T03:56:34;2.75;;;2.65;;
20177;SDS011;10248;51.218;20.866;2022-11-02T03:59:05;3.10;;;3.00;;
20177;SDS011;10248;51.218;20.866;2022-11-02T04:01:36;2.72;;;2.63;;
20177;SDS011;10248;51.218;20.866;2022-11-02T04:04:04;3.10;;;3.00;;
20177;SDS011;10248;51.218;20.866;2022-11-02T04:06:32;2.80;;;2.70;;
20177;SDS011;10248;51.218;20.866;2022-11-02T04:09:00;2.85;;;2.75;;
20177;SDS011;10248;51.218;20.866;2022-11-02T04:11:28;2.90;;;2.80;;
20177;SDS011;10248;51.218;20.866;2022-11-02T04:14:15;2.92;;;2.83;;
20177;SDS011;10248;51.218;20.866;2022-11-02T04:17:01;2.90;;;2.80;;
20177;SDS011;10248;51.218;20.866;2022-11-02T04:19:46;2.80;;;2.70;;
20177;SDS011;10248;51.218;20.866;2022-11-02T04:22:15;2.80;;;2.70;;
20177;SDS011;10248;51.218;20.866;2022-11-02T04:25:01;2.97;;;2.88;;
20177;SDS011;10248;51.218;20.866;2022-11-02T04:27:47;2.70;;;2.60;;
20177;SDS011;10248;51.218;20.866;2022-11-02T04:30:18;2.90;;;2.80;;
20177;SDS011;10248;51.218;20.866;2022-11-02T04:32:47;2.90;;;2.80;;
20177;SDS011;10248;51.218;20.866;2022-11-02T04:35:34;2.80;;;2.70;;
20177;SDS011;10248;51.218;20.866;2022-11-02T04:38:02;3.00;;;2.90;;
20177;SDS011;10248;51.218;20.866;2022-11-02T04:40:58;2.90;;;2.80;;
20177;SDS011;10248;51.218;20.866;2022-11-02T04:43:39;2.92;;;2.83;;
20177;SDS011;10248;51.218;20.866;2022-11-02T04:46:08;3.10;;;3.00;;
20177;SDS011;10248;51.218;20.866;2022-11-02T04:48:36;2.97;;;2.88;;
20177;SDS011;10248;51.218;20.866;2022-11-02T04:51:04;2.65;;;2.55;;
20177;SDS011;10248;51.218;20.866;2022-11-02T04:53:32;2.70;;;2.60;;
20177;SDS011;10248;51.218;20.866;2022-11-02T04:56:00;2.65;;;2.55;;
20177;SDS011;10248;51.218;20.866;2022-11-02T04:58:28;2.88;;;2.78;;
20177;SDS011;10248;51.218;20.866;2022-11-02T05:00:56;2.72;;;2.63;;
20177;SDS011;10248;51.218;20.866;2022-11-02T05:03:25;2.85;;;2.75;;
20177;SDS011;10248;51.218;20.866;2022-11-02T05:05:53;2.97;;;2.88;;
20177;SDS011;10248;51.218;20.866;2022-11-02T05:08:21;2.70;;;2.60;;
20177;SDS011;10248;51.218;20.866;2022-11-02T05:10:52;2.88;;;2.78;;
20177;SDS011;10248;51.218;20.866;2022-11-02T05:13:21;2.85;;;2.75;;
20177;SDS011;10248;51.218;20.866;2022-11-02T05:15:49;2.80;;;2.70;;
20177;SDS011;10248;51.218;20.866;2022-11-02T05:18:16;2.70;;;2.60;;
20177;SDS011;10248;51.218;20.866;2022-11-02T05:20:49;2.90;;;2.80;;
20177;SDS011;10248;51.218;20.866;2022-11-02T05:23:18;2.83;;;2.72;;
20177;SDS011;10248;51.218;20.866;2022-11-02T05:25:52;2.90;;;2.80;;
20177;SDS011;10248;51.218;20.866;2022-11-02T05:28:21;2.80;;;2.70;;
20177;SDS011;10248;51.218;20.866;2022-11-02T05:30:49;2.80;;;2.70;;
20177;SDS011;10248;51.218;20.866;2022-11-02T05:33:17;2.70;;;2.60;;
20177;SDS011;10248;51.218;20.866;2022-11-02T05:35:45;2.85;;;2.75;;
20177;SDS011;10248;51.218;20.866;2022-11-02T05:38:15;2.85;;;2.75;;
20177;SDS011;10248;51.218;20.866;2022-11-02T05:40:42;3.03;;;2.92;;
20177;SDS011;10248;51.218;20.866;2022-11-02T05:43:10;3.00;;;2.90;;
20177;SDS011;10248;51.218;20.866;2022-11-02T05:45:38;2.50;;;2.40;;
20177;SDS011;10248;51.218;20.866;2022-11-02T05:48:06;2.85;;;2.75;;
20177;SDS011;10248;51.218;20.866;2022-11-02T05:50:33;2.78;;;2.67;;
20177;SDS011;10248;51.218;20.866;2022-11-02T05:53:02;2.90;;;2.80;;
20177;SDS011;10248;51.218;20.866;2022-11-02T05:55:35;3.08;;;2.97;;
20177;SDS011;10248;51.218;20.866;2022-11-02T05:58:03;2.70;;;2.60;;
20177;SDS011;10248;51.218;20.866;2022-11-02T06:00:31;3.00;;;2.90;;
20177;SDS011;10248;51.218;20.866;2022-11-02T06:02:59;3.00;;;2.90;;
20177;SDS011;10248;51.218;20.866;2022-11-02T06:05:28;2.95;;;2.85;;
20177;SDS011;10248;51.218;20.866;2022-11-02T06:07:59;3.00;;;2.90;;
20177;SDS011;10248;51.218;20.866;2022-11-02T06:10:27;2.90;;;2.80;;
20177;SDS011;10248;51.218;20.866;2022-11-02T06:12:57;2.80;;;2.70;;
20177;SDS011;10248;51.218;20.866;2022-11-02T06:15:26;2.90;;;2.80;;
20177;SDS011;10248;51.218;20.866;2022-11-02T06:17:54;3.03;;;2.92;;
20177;SDS011;10248;51.218;20.866;2022-11-02T06:20:22;2.97;;;2.88;;
20177;SDS011;10248;51.218;20.866;2022-11-02T06:22:50;3.00;;;2.90;;
20177;SDS011;10248;51.218;20.866;2022-11-02T06:25:17;3.10;;;3.00;;
20177;SDS011;10248;51.218;20.866;2022-11-02T06:27:49;2.90;;;2.80;;
20177;SDS011;10248;51.218;20.866;2022-11-02T06:30:20;2.80;;;2.70;;
20177;SDS011;10248;51.218;20.866;2022-11-02T06:32:48;2.95;;;2.85;;
20177;SDS011;10248;51.218;20.866;2022-11-02T06:35:17;2.95;;;2.85;;
20177;SDS011;10248;51.218;20.866;2022-11-02T06:37:46;3.00;;;2.90;;
20177;SDS011;10248;51.218;20.866;2022-11-02T06:40:14;3.00;;;2.90;;
20177;SDS011;10248;51.218;20.866;2022-11-02T06:42:45;3.00;;;2.90;;
20177;SDS011;10248;51.218;20.866;2022-11-02T06:45:34;3.00;;;2.90;;
20177;SDS011;10248;51.218;20.866;2022-11-02T06:48:02;2.80;;;2.70;;
20177;SDS011;10248;51.218;20.866;2022-11-02T06:50:30;2.90;;;2.80;;
20177;SDS011;10248;51.218;20.866;2022-11-02T06:52:58;2.67;;;2.58;;
20177;SDS011;10248;51.218;20.866;2022-11-02T06:55:26;2.80;;;2.70;;
20177;SDS011;10248;51.218;20.866;2022-11-02T06:57:55;2.95;;;2.85;;
20177;SDS011;10248;51.218;20.866;2022-11-02T07:00:23;3.00;;;2.90;;
20177;SDS011;10248;51.218;20.866;2022-11-02T07:02:58;2.90;;;2.80;;
20177;SDS011;10248;51.218;20.866;2022-11-02T07:05:27;2.70;;;2.60;;
20177;SDS011;10248;51.218;20.866;2022-11-02T07:07:56;2.88;;;2.78;;
20177;SDS011;10248;51.218;20.866;2022-11-02T07:10:24;3.08;;;2.97;;
20177;SDS011;10248;51.218;20.866;2022-11-02T07:12:52;2.80;;;2.70;;
20177;SDS011;10248;51.218;20.866;2022-11-02T07:15:20;2.67;;;2.58;;
20177;SDS011;10248;51.218;20.866;2022-11-02T07:17:49;2.90;;;2.80;;
20177;SDS011;10248;51.218;20.866;2022-11-02T07:20:19;2.70;;;2.60;;
20177;SDS011;10248;51.218;20.866;2022-11-02T07:22:50;2.75;;;2.65;;
20177;SDS011;10248;51.218;20.866;2022-11-02T07:25:20;2.88;;;2.78;;
20177;SDS011;10248;51.218;20.866;2022-11-02T07:27:50;2.90;;;2.80;;
20177;SDS011;10248;51.218;20.866;2022-11-02T07:30:19;3.05;;;2.95;;
20177;SDS011;10248;51.218;20.866;2022-11-02T07:32:47;2.70;;;2.60;;
20177;SDS011;10248;51.218;20.866;2022-11-02T07:35:15;3.00;;;2.90;;
20177;SDS011;10248;51.218;20.866;2022-11-02T07:37:44;3.03;;;2.92;;
20177;SDS011;10248;51.218;20.866;2022-11-02T07:40:21;2.55;;;2.45;;
20177;SDS011;10248;51.218;20.866;2022-11-02T07:42:49;3.00;;;2.90;;
20177;SDS011;10248;51.218;20.866;2022-11-02T07:45:19;2.90;;;2.80;;
20177;SDS011;10248;51.218;20.866;2022-11-02T07:47:47;2.67;;;2.58;;
20177;SDS011;10248;51.218;20.866;2022-11-02T07:50:16;2.75;;;2.65;;
20177;SDS011;10248;51.218;20.866;2022-11-02T07:52:47;2.92;;;2.83;;
20177;SDS011;10248;51.218;20.866;2022-11-02T07:55:16;3.00;;;2.90;;
20177;SDS011;10248;51.218;20.866;2022-11-02T07:57:51;3.10;;;3.00;;
20177;SDS011;10248;51.218;20.866;2022-11-02T08:00:19;2.95;;;2.85;;
20177;SDS011;10248;51.218;20.866;2022-11-02T08:02:47;3.00;;;2.90;;
20177;SDS011;10248;51.218;20.866;2022-11-02T08:05:16;2.78;;;2.67;;
20177;SDS011;10248;51.218;20.866;2022-11-02T08:07:46;2.88;;;2.78;;
20177;SDS011;10248;51.218;20.866;2022-11-02T08:10:14;2.90;;;2.80;;
20177;SDS011;10248;51.218;20.866;2022-11-02T08:12:42;3.00;;;2.90;;
20177;SDS011;10248;51.218;20.866;2022-11-02T08:15:10;2.92;;;2.83;;
20177;SDS011;10248;51.218;20.866;2022-11-02T08:17:38;2.92;;;2.83;;
20177;SDS011;10248;51.218;20.866;2022-11-02T08:20:06;2.90;;;2.80;;
20177;SDS011;10248;51.218;20.866;2022-11-02T08:22:37;3.10;;;3.00;;
20177;SDS011;10248;51.218;20.866;2022-11-02T08:25:06;3.00;;;2.90;;
20177;SDS011;10248;51.218;20.866;2022-11-02T08:27:34;2.78;;;2.67;;
20177;SDS011;10248;51.218;20.866;2022-11-02T08:30:03;2.75;;;2.65;;
20177;SDS011;10248;51.218;20.866;2022-11-02T08:32:31;3.00;;;2.90;;
20177;SDS011;10248;51.218;20.866;2022-11-02T08:35:01;3.00;;;2.90;;
20177;SDS011;10248;51.218;20.866;2022-11-02T08:40:49;3.00;;;2.90;;
20177;SDS011;10248;51.218;20.866;2022-11-02T08:43:17;3.10;;;3.00;;
20177;SDS011;10248;51.218;20.866;2022-11-02T08:45:45;3.15;;;3.05;;
20177;SDS011;10248;51.218;20.866;2022-11-02T08:48:33;3.35;;;3.25;;
20177;SDS011;10248;51.218;20.866;2022-11-02T08:51:00;3.03;;;2.92;;
20177;SDS011;10248;51.218;20.866;2022-11-02T08:53:30;3.10;;;3.00;;
20177;SDS011;10248;51.218;20.866;2022-11-02T08:55:59;3.30;;;3.20;;
20177;SDS011;10248;51.218;20.866;2022-11-02T08:58:27;3.20;;;3.10;;
20177;SDS011;10248;51.218;20.866;2022-11-02T09:00:55;3.30;;;3.20;;
20177;SDS011;10248;51.218;20.866;2022-11-02T09:03:22;3.00;;;2.90;;
20177;SDS011;10248;51.218;20.866;2022-11-02T09:05:55;3.10;;;3.00;;
20177;SDS011;10248;51.218;20.866;2022-11-02T09:08:24;3.20;;;3.10;;
20177;SDS011;10248;51.218;20.866;2022-11-02T09:10:56;2.97;;;2.88;;
20177;SDS011;10248;51.218;20.866;2022-11-02T09:13:26;3.00;;;2.90;;
20177;SDS011;10248;51.218;20.866;2022-11-02T09:15:55;2.80;;;2.70;;
20177;SDS011;10248;51.218;20.866;2022-11-02T09:18:25;3.03;;;2.92;;
20177;SDS011;10248;51.218;20.866;2022-11-02T09:20:52;3.10;;;3.00;;
20177;SDS011;10248;51.218;20.866;2022-11-02T09:23:20;3.15;;;3.05;;
20177;SDS011;10248;51.218;20.866;2022-11-02T09:25:48;3.00;;;2.90;;
20177;SDS011;10248;51.218;20.866;2022-11-02T09:28:16;3.00;;;2.90;;
20177;SDS011;10248;51.218;20.866;2022-11-02T09:30:45;3.15;;;3.05;;
20177;SDS011;10248;51.218;20.866;2022-11-02T09:33:13;2.92;;;2.83;;
20177;SDS011;10248;51.218;20.866;2022-11-02T09:35:42;2.95;;;2.85;;
20177;SDS011;10248;51.218;20.866;2022-11-02T09:38:12;2.78;;;2.67;;
20177;SDS011;10248;51.218;20.866;2022-11-02T09:40:40;3.03;;;2.92;;
20177;SDS011;10248;51.218;20.866;2022-11-02T09:43:13;3.10;;;3.00;;
20177;SDS011;10248;51.218;20.866;2022-11-02T09:45:52;3.00;;;2.90;;
20177;SDS011;10248;51.218;20.866;2022-11-02T09:48:24;3.17;;;3.08;;
20177;SDS011;10248;51.218;20.866;2022-11-02T09:50:55;3.25;;;3.15;;
20177;SDS011;10248;51.218;20.866;2022-11-02T09:53:30;3.10;;;3.00;;
20177;SDS011;10248;51.218;20.866;2022-11-02T09:56:03;2.97;;;2.88;;
20177;SDS011;10248;51.218;20.866;2022-11-02T09:58:32;3.00;;;2.90;;
20177;SDS011;10248;51.218;20.866;2022-11-02T10:01:04;3.22;;;3.13;;
20177;SDS011;10248;51.218;20.866;2022-11-02T10:03:42;3.53;;;3.42;;
20177;SDS011;10248;51.218;20.866;2022-11-02T10:06:20;3.40;;;3.30;;
20177;SDS011;10248;51.218;20.866;2022-11-02T10:08:50;3.30;;;3.20;;
20177;SDS011;10248;51.218;20.866;2022-11-02T10:11:26;3.40;;;3.30;;
20177;SDS011;10248;51.218;20.866;2022-11-02T10:14:00;3.03;;;2.92;;
20177;SDS011;10248;51.218;20.866;2022-11-02T10:16:33;3.10;;;3.00;;
20177;SDS011;10248;51.218;20.866;2022-11-02T10:19:04;3.17;;;3.08;;
20177;SDS011;10248;51.218;20.866;2022-11-02T10:21:37;3.22;;;3.13;;
20177;SDS011;10248;51.218;20.866;2022-11-02T10:24:09;3.10;;;3.00;;
20177;SDS011;10248;51.218;20.866;2022-11-02T10:26:39;3.05;;;2.95;;
20177;SDS011;10248;51.218;20.866;2022-11-02T10:29:11;3.30;;;3.20;;
20177;SDS011;10248;51.218;20.866;2022-11-02T10:31:44;3.40;;;3.30;;
20177;SDS011;10248;51.218;20.866;2022-11-02T10:34:18;3.20;;;3.10;;
20177;SDS011;10248;51.218;20.866;2022-11-02T10:36:51;3.10;;;3.00;;
20177;SDS011;10248;51.218;20.866;2022-11-02T10:39:27;3.33;;;3.22;;
20177;SDS011;10248;51.218;20.866;2022-11-02T10:42:11;3.30;;;3.20;;
20177;SDS011;10248;51.218;20.866;2022-11-02T10:47:50;3.40;;;3.30;;
20177;SDS011;10248;51.218;20.866;2022-11-02T10:50:31;3.15;;;3.05;;
20177;SDS011;10248;51.218;20.866;2022-11-02T10:53:13;3.40;;;3.30;;
20177;SDS011;10248;51.218;20.866;2022-11-02T10:56:02;3.10;;;3.00;;
20177;SDS011;10248;51.218;20.866;2022-11-02T10:58:34;2.97;;;2.88;;
20177;SDS011;10248;51.218;20.866;2022-11-02T11:03:39;3.40;;;3.30;;
20177;SDS011;10248;51.218;20.866;2022-11-02T11:06:19;3.33;;;3.22;;
20177;SDS011;10248;51.218;20.866;2022-11-02T11:08:47;3.10;;;3.00;;
20177;SDS011;10248;51.218;20.866;2022-11-02T11:11:18;3.22;;;3.13;;
20177;SDS011;10248;51.218;20.866;2022-11-02T11:13:55;3.10;;;3.00;;
20177;SDS011;10248;51.218;20.866;2022-11-02T11:16:44;3.30;;;3.20;;
20177;SDS011;10248;51.218;20.866;2022-11-02T11:19:19;3.40;;;3.30;;
20177;SDS011;10248;51.218;20.866;2022-11-02T11:22:21;3.30;;;3.20;;
20177;SDS011;10248;51.218;20.866;2022-11-02T11:24:50;3.40;;;3.30;;
20177;SDS011;10248;51.218;20.866;2022-11-02T11:27:18;3.22;;;3.13;;
20177;SDS011;10248;51.218;20.866;2022-11-02T11:29:48;3.33;;;3.22;;
20177;SDS011;10248;51.218;20.866;2022-11-02T11:32:18;3.30;;;3.20;;
20177;SDS011;10248;51.218;20.866;2022-11-02T11:34:57;3.50;;;3.40;;
20177;SDS011;10248;51.218;20.866;2022-11-02T11:37:26;3.60;;;3.50;;
20177;SDS011;10248;51.218;20.866;2022-11-02T11:39:56;3.60;;;3.50;;
20177;SDS011;10248;51.218;20.866;2022-11-02T11:42:27;3.60;;;3.50;;
20177;SDS011;10248;51.218;20.866;2022-11-02T11:44:58;3.30;;;3.20;;
20177;SDS011;10248;51.218;20.866;2022-11-02T11:47:29;3.30;;;3.20;;
20177;SDS011;10248;51.218;20.866;2022-11-02T11:50:01;3.40;;;3.30;;
20177;SDS011;10248;51.218;20.866;2022-11-02T11:52:42;3.40;;;3.30;;
20177;SDS011;10248;51.218;20.866;2022-11-02T11:55:20;3.40;;;3.30;;
20177;SDS011;10248;51.218;20.866;2022-11-02T11:58:05;3.60;;;3.50;;
20177;SDS011;10248;51.218;20.866;2022-11-02T12:00:33;3.50;;;3.40;;
20177;SDS011;10248;51.218;20.866;2022-11-02T12:03:02;3.35;;;3.25;;
20177;SDS011;10248;51.218;20.866;2022-11-02T12:05:36;3.40;;;3.30;;
20177;SDS011;10248;51.218;20.866;2022-11-02T12:08:21;3.60;;;3.50;;
20177;SDS011;10248;51.218;20.866;2022-11-02T12:10:58;3.70;;;3.60;;
20177;SDS011;10248;51.218;20.866;2022-11-02T12:13:38;4.00;;;3.90;;
20177;SDS011;10248;51.218;20.866;2022-11-02T12:16:28;3.95;;;3.85;;
20177;SDS011;10248;51.218;20.866;2022-11-02T12:19:17;3.90;;;3.80;;
20177;SDS011;10248;51.218;20.866;2022-11-02T12:21:55;4.00;;;3.90;;
20177;SDS011;10248;51.218;20.866;2022-11-02T12:24:35;4.00;;;3.90;;
20177;SDS011;10248;51.218;20.866;2022-11-02T12:27:13;4.10;;;4.00;;
20177;SDS011;10248;51.218;20.866;2022-11-02T12:30:02;3.60;;;3.50;;
20177;SDS011;10248;51.218;20.866;2022-11-02T12:32:57;4.05;;;3.95;;
20177;SDS011;10248;51.218;20.866;2022-11-02T12:35:36;3.80;;;3.70;;
20177;SDS011;10248;51.218;20.866;2022-11-02T12:38:34;4.10;;;4.00;;
20177;SDS011;10248;51.218;20.866;2022-11-02T12:41:13;3.88;;;3.78;;
20177;SDS011;10248;51.218;20.866;2022-11-02T12:43:46;3.90;;;3.80;;
20177;SDS011;10248;51.218;20.866;2022-11-02T12:46:19;3.60;;;3.50;;
20177;SDS011;10248;51.218;20.866;2022-11-02T12:48:55;3.38;;;3.28;;
20177;SDS011;10248;51.218;20.866;2022-11-02T12:51:27;3.60;;;3.50;;
20177;SDS011;10248;51.218;20.866;2022-11-02T12:54:02;3.58;;;3.47;;
20177;SDS011;10248;51.218;20.866;2022-11-02T12:56:33;3.30;;;3.20;;
20177;SDS011;10248;51.218;20.866;2022-11-02T12:59:09;3.30;;;3.20;;
20177;SDS011;10248;51.218;20.866;2022-11-02T13:04:11;3.20;;;3.10;;
20177;SDS011;10248;51.218;20.866;2022-11-02T13:06:42;3.70;;;3.60;;
20177;SDS011;10248;51.218;20.866;2022-11-02T13:09:13;3.70;;;3.60;;
20177;SDS011;10248;51.218;20.866;2022-11-02T13:11:45;3.70;;;3.60;;
20177;SDS011;10248;51.218;20.866;2022-11-02T13:14:17;3.40;;;3.30;;
20177;SDS011;10248;51.218;20.866;2022-11-02T13:16:48;3.35;;;3.25;;
20177;SDS011;10248;51.218;20.866;2022-11-02T13:19:18;3.78;;;3.67;;
20177;SDS011;10248;51.218;20.866;2022-11-02T13:21:48;3.50;;;3.40;;
20177;SDS011;10248;51.218;20.866;2022-11-02T13:26:55;3.50;;;3.40;;
20177;SDS011;10248;51.218;20.866;2022-11-02T13:29:47;3.78;;;3.67;;
20177;SDS011;10248;51.218;20.866;2022-11-02T13:32:16;3.40;;;3.30;;
20177;SDS011;10248;51.218;20.866;2022-11-02T13:35:02;3.63;;;3.53;;
20177;SDS011;10248;51.218;20.866;2022-11-02T13:37:37;3.80;;;3.70;;
20177;SDS011;10248;51.218;20.866;2022-11-02T13:40:11;3.70;;;3.60;;
20177;SDS011;10248;51.218;20.866;2022-11-02T13:45:50;3.40;;;3.30;;
20177;SDS011;10248;51.218;20.866;2022-11-02T13:48:30;3.63;;;3.53;;
20177;SDS011;10248;51.218;20.866;2022-11-02T13:51:05;3.60;;;3.50;;
20177;SDS011;10248;51.218;20.866;2022-11-02T13:53:37;3.58;;;3.47;;
20177;SDS011;10248;51.218;20.866;2022-11-02T13:56:10;3.30;;;3.20;;
20177;SDS011;10248;51.218;20.866;2022-11-02T13:58:40;3.50;;;3.40;;
20177;SDS011;10248;51.218;20.866;2022-11-02T14:03:44;3.30;;;3.20;;
20177;SDS011;10248;51.218;20.866;2022-11-02T14:06:16;3.50;;;3.40;;
20177;SDS011;10248;51.218;20.866;2022-11-02T14:08:48;3.50;;;3.40;;
20177;SDS011;10248;51.218;20.866;2022-11-02T14:11:26;3.60;;;3.50;;
20177;SDS011;10248;51.218;20.866;2022-11-02T14:14:17;3.70;;;3.60;;
20177;SDS011;10248;51.218;20.866;2022-11-02T14:19:51;3.60;;;3.50;;
20177;SDS011;10248;51.218;20.866;2022-11-02T14:22:20;3.40;;;3.30;;
20177;SDS011;10248;51.218;20.866;2022-11-02T14:24:54;3.50;;;3.40;;
20177;SDS011;10248;51.218;20.866;2022-11-02T14:27:39;3.17;;;3.08;;
20177;SDS011;10248;51.218;20.866;2022-11-02T14:33:08;3.20;;;3.10;;
20177;SDS011;10248;51.218;20.866;2022-11-02T14:35:48;3.30;;;3.20;;
20177;SDS011;10248;51.218;20.866;2022-11-02T14:38:26;3.10;;;3.00;;
20177;SDS011;10248;51.218;20.866;2022-11-02T14:41:05;3.20;;;3.10;;
20177;SDS011;10248;51.218;20.866;2022-11-02T14:43:51;3.05;;;2.95;;
20177;SDS011;10248;51.218;20.866;2022-11-02T14:46:35;3.20;;;3.10;;
20177;SDS011;10248;51.218;20.866;2022-11-02T14:49:14;3.22;;;3.13;;
20177;SDS011;10248;51.218;20.866;2022-11-02T14:51:44;3.25;;;3.15;;
20177;SDS011;10248;51.218;20.866;2022-11-02T14:54:29;3.03;;;2.92;;
20177;SDS011;10248;51.218;20.866;2022-11-02T14:57:00;3.35;;;3.25;;
20177;SDS011;10248;51.218;20.866;2022-11-02T14:59:32;3.30;;;3.20;;
20177;SDS011;10248;51.218;20.866;2022-11-02T15:02:03;3.25;;;3.15;;
20177;SDS011;10248;51.218;20.866;2022-11-02T15:04:32;3.20;;;3.10;;
20177;SDS011;10248;51.218;20.866;2022-11-02T15:07:02;3.15;;;3.05;;
20177;SDS011;10248;51.218;20.866;2022-11-02T15:15:31;3.40;;;3.30;;
20177;SDS011;10248;51.218;20.866;2022-11-02T15:23:59;3.17;;;3.08;;
20177;SDS011;10248;51.218;20.866;2022-11-02T15:26:39;3.10;;;3.00;;
20177;SDS011;10248;51.218;20.866;2022-11-02T15:29:14;3.20;;;3.10;;
20177;SDS011;10248;51.218;20.866;2022-11-02T15:32:02;3.20;;;3.10;;
20177;SDS011;10248;51.218;20.866;2022-11-02T15:34:33;3.40;;;3.30;;
20177;SDS011;10248;51.218;20.866;2022-11-02T15:37:04;3.45;;;3.35;;
20177;SDS011;10248;51.218;20.866;2022-11-02T15:39:39;3.35;;;3.25;;
20177;SDS011;10248;51.218;20.866;2022-11-02T15:42:11;3.30;;;3.20;;
20177;SDS011;10248;51.218;20.866;2022-11-02T15:44:54;3.40;;;3.30;;